Time;durP1;ratioP1;P1;durP2;ratioP2;P2;SDS_P1;SDS_P2;PMS_P1;PMS_P2;Temp;Humidity;BMP_temperature;BMP_pressure;BME280_temperature;BME280_humidity;BME280_pressure;Samples;Min_cycle;Max_cycle;Signal;HPM_P1;HPM_P2
2023/05/31 00:01:43;;;;;;;5.63;2.50;;;;;;;;;;5054426;28;20229;-86
2023/05/31 00:04:10;;;;;;;4.00;2.30;;;;;;;;;;5055348;28;20213;-86
2023/05/31 00:06:37;;;;;;;4.43;2.47;;;;;;;;;;5051131;28;20231;-87
2023/05/31 00:09:04;;;;;;;3.93;2.43;;;;;;;;;;5055685;28;20213;-87
2023/05/31 00:11:31;;;;;;;4.17;2.37;;;;;;;;;;5041568;28;20712;-87
2023/05/31 00:13:58;;;;;;;3.40;2.53;;;;;;;;;;5051470;28;20213;-87
2023/05/31 00:16:27;;;;;;;3.73;2.30;;;;;;;;;;5054254;28;20257;-87
2023/05/31 00:18:54;;;;;;;7.47;3.00;;;;;;;;;;5055112;28;20275;-87
2023/05/31 00:21:21;;;;;;;4.13;2.30;;;;;;;;;;5037070;28;20229;-86
2023/05/31 00:23:49;;;;;;;4.43;2.30;;;;;;;;;;5046034;28;20202;-87
2023/05/31 00:26:16;;;;;;;6.00;3.10;;;;;;;;;;5043187;28;20226;-86
2023/05/31 00:28:43;;;;;;;5.13;2.40;;;;;;;;;;5045376;28;20214;-87
2023/05/31 00:31:10;;;;;;;5.00;2.33;;;;;;;;;;5045846;28;20226;-86
2023/05/31 00:33:38;;;;;;;4.13;2.30;;;;;;;;;;5053838;28;20256;-86
2023/05/31 00:36:06;;;;;;;4.77;2.47;;;;;;;;;;5053455;28;20226;-87
2023/05/31 00:38:33;;;;;;;4.30;2.50;;;;;;;;;;5048998;28;20230;-86
2023/05/31 00:41:00;;;;;;;5.07;2.37;;;;;;;;;;5041622;28;20238;-86
2023/05/31 00:43:27;;;;;;;5.90;3.07;;;;;;;;;;5050738;28;20203;-87
2023/05/31 00:45:54;;;;;;;4.90;2.40;;;;;;;;;;5052983;28;20230;-86
2023/05/31 00:48:21;;;;;;;4.73;2.40;;;;;;;;;;5050806;28;20245;-86
2023/05/31 00:50:51;;;;;;;3.60;2.20;;;;;;;;;;5037821;28;20234;-86
2023/05/31 00:53:19;;;;;;;4.37;2.60;;;;;;;;;;5033208;28;20215;-86
2023/05/31 00:55:46;;;;;;;6.20;2.80;;;;;;;;;;5043888;28;20227;-86
2023/05/31 00:58:13;;;;;;;5.37;2.70;;;;;;;;;;5043160;28;20229;-87
2023/05/31 01:00:40;;;;;;;5.67;2.60;;;;;;;;;;5048096;28;20227;-87
2023/05/31 01:03:09;;;;;;;3.33;2.63;;;;;;;;;;5050894;28;20201;-86
2023/05/31 01:05:36;;;;;;;3.30;2.70;;;;;;;;;;5047721;28;20727;-86
2023/05/31 01:08:04;;;;;;;5.93;2.57;;;;;;;;;;5048093;28;20226;-87
2023/05/31 01:10:32;;;;;;;3.90;2.17;;;;;;;;;;5048993;28;20230;-86
2023/05/31 01:13:03;;;;;;;5.93;2.80;;;;;;;;;;5041788;28;20242;-86
2023/05/31 01:15:33;;;;;;;5.13;2.57;;;;;;;;;;5033332;28;20312;-86
2023/05/31 01:18:09;;;;;;;6.37;2.63;;;;;;;;;;5041869;28;20226;-87
2023/05/31 01:20:36;;;;;;;4.90;2.37;;;;;;;;;;5033139;28;20240;-87
2023/05/31 01:23:13;;;;;;;6.77;2.93;;;;;;;;;;5042104;28;20278;-86
2023/05/31 01:25:51;;;;;;;5.03;3.00;;;;;;;;;;5039295;28;20241;-87
2023/05/31 01:28:20;;;;;;;3.80;2.80;;;;;;;;;;5037241;28;20233;-87
2023/05/31 01:30:50;;;;;;;6.73;2.67;;;;;;;;;;5047221;28;20253;-86
2023/05/31 01:33:18;;;;;;;4.70;2.60;;;;;;;;;;5050302;28;20205;-87
2023/05/31 01:35:46;;;;;;;2.57;2.37;;;;;;;;;;5043328;28;20233;-86
2023/05/31 01:38:13;;;;;;;4.00;2.70;;;;;;;;;;5053509;28;20232;-87
2023/05/31 01:40:41;;;;;;;6.43;2.60;;;;;;;;;;5049084;28;20234;-87
2023/05/31 01:43:08;;;;;;;4.03;2.90;;;;;;;;;;5057039;28;20210;-87
2023/05/31 01:45:38;;;;;;;5.97;2.70;;;;;;;;;;5056749;28;20245;-87
2023/05/31 01:48:06;;;;;;;5.27;2.63;;;;;;;;;;5048347;28;20234;-87
2023/05/31 01:50:34;;;;;;;5.20;2.80;;;;;;;;;;5047425;28;20753;-87
2023/05/31 01:53:01;;;;;;;4.70;2.37;;;;;;;;;;5040444;28;20210;-86
2023/05/31 01:55:29;;;;;;;6.80;2.50;;;;;;;;;;5044846;28;20260;-86
2023/05/31 01:57:56;;;;;;;3.90;2.57;;;;;;;;;;5052621;28;20257;-86
2023/05/31 02:00:23;;;;;;;7.27;2.57;;;;;;;;;;5045420;28;20229;-87
2023/05/31 02:02:52;;;;;;;2.87;2.50;;;;;;;;;;5045489;28;20202;-87
2023/05/31 02:05:19;;;;;;;5.77;2.73;;;;;;;;;;5055309;28;20233;-87
2023/05/31 02:07:47;;;;;;;4.30;2.60;;;;;;;;;;5048498;28;20230;-87
2023/05/31 02:10:14;;;;;;;2.83;2.57;;;;;;;;;;5048253;28;20578;-87
2023/05/31 02:12:41;;;;;;;9.23;2.70;;;;;;;;;;5043442;28;20616;-86
2023/05/31 02:15:10;;;;;;;6.13;3.27;;;;;;;;;;5043972;28;20305;-86
2023/05/31 02:20:42;;;;;;;6.07;2.93;;;;;;;;;;5057137;28;20276;-87
2023/05/31 02:23:09;;;;;;;9.43;3.07;;;;;;;;;;5055018;28;20207;-87
2023/05/31 02:25:36;;;;;;;7.50;3.20;;;;;;;;;;5055758;28;20237;-87
2023/05/31 02:28:03;;;;;;;6.47;2.77;;;;;;;;;;5056720;28;20233;-86
2023/05/31 02:30:31;;;;;;;4.07;2.40;;;;;;;;;;5055038;28;20300;-87
2023/05/31 02:32:59;;;;;;;7.10;2.90;;;;;;;;;;5047596;28;20240;-87
2023/05/31 02:35:26;;;;;;;3.67;2.53;;;;;;;;;;5047058;28;20662;-88
2023/05/31 02:37:55;;;;;;;5.20;2.80;;;;;;;;;;5056393;28;20223;-88
2023/05/31 02:40:22;;;;;;;7.50;3.00;;;;;;;;;;5055704;28;20226;-87
2023/05/31 02:42:49;;;;;;;8.23;2.80;;;;;;;;;;5047836;28;20252;-87
2023/05/31 02:45:16;;;;;;;3.83;2.53;;;;;;;;;;5049748;28;20225;-88
2023/05/31 02:47:43;;;;;;;3.90;2.90;;;;;;;;;;5050712;28;20364;-88
2023/05/31 02:50:11;;;;;;;5.93;2.60;;;;;;;;;;5045820;28;20234;-87
2023/05/31 02:52:38;;;;;;;6.30;2.83;;;;;;;;;;5046994;28;20211;-88
2023/05/31 02:55:07;;;;;;;6.30;3.00;;;;;;;;;;5043851;28;20241;-87
2023/05/31 02:57:34;;;;;;;5.77;3.10;;;;;;;;;;5045264;28;20719;-88
2023/05/31 03:00:08;;;;;;;6.30;3.07;;;;;;;;;;5048196;28;20516;-87
2023/05/31 03:02:35;;;;;;;2.77;2.50;;;;;;;;;;5036028;28;20201;-88
2023/05/31 03:05:03;;;;;;;5.47;3.50;;;;;;;;;;5043311;28;20320;-88
2023/05/31 03:07:31;;;;;;;4.13;2.77;;;;;;;;;;5044304;28;20234;-88
2023/05/31 03:09:57;;;;;;;8.70;3.30;;;;;;;;;;5042987;28;20231;-87
2023/05/31 03:12:26;;;;;;;6.63;3.30;;;;;;;;;;5052137;28;20206;-88
2023/05/31 03:14:53;;;;;;;11.13;3.60;;;;;;;;;;5041219;28;20238;-87
2023/05/31 03:17:20;;;;;;;5.80;3.20;;;;;;;;;;5039297;28;20221;-87
2023/05/31 03:19:47;;;;;;;6.70;3.20;;;;;;;;;;5041857;28;20246;-88
2023/05/31 03:22:14;;;;;;;6.47;3.20;;;;;;;;;;5044676;28;20197;-87
2023/05/31 03:24:41;;;;;;;5.87;2.90;;;;;;;;;;5054888;28;20234;-88
2023/05/31 03:27:09;;;;;;;5.00;3.00;;;;;;;;;;5046630;28;20313;-87
2023/05/31 03:29:38;;;;;;;5.80;3.00;;;;;;;;;;5042079;28;20206;-87
2023/05/31 03:32:05;;;;;;;6.67;2.80;;;;;;;;;;5050419;28;20202;-87
2023/05/31 03:34:34;;;;;;;6.80;3.20;;;;;;;;;;5045379;28;20210;-87
2023/05/31 03:37:02;;;;;;;7.57;2.87;;;;;;;;;;5053808;28;20241;-87
2023/05/31 03:39:29;;;;;;;5.87;3.30;;;;;;;;;;5044733;28;20242;-88
2023/05/31 03:41:56;;;;;;;7.57;3.43;;;;;;;;;;5046593;28;20214;-89
2023/05/31 03:44:23;;;;;;;6.40;3.30;;;;;;;;;;5046556;28;20659;-89
2023/05/31 03:46:51;;;;;;;6.07;2.90;;;;;;;;;;5044545;28;20222;-89
2023/05/31 03:49:18;;;;;;;4.73;3.00;;;;;;;;;;5050308;28;20211;-88
2023/05/31 03:51:45;;;;;;;5.70;2.97;;;;;;;;;;5054699;28;20195;-89
2023/05/31 03:54:14;;;;;;;6.23;3.43;;;;;;;;;;5046984;28;20654;-90
2023/05/31 03:56:41;;;;;;;4.80;3.50;;;;;;;;;;5049827;28;20226;-90
2023/05/31 03:59:08;;;;;;;10.27;3.13;;;;;;;;;;5049896;28;20209;-90
2023/05/31 04:01:35;;;;;;;6.80;3.40;;;;;;;;;;5036510;28;20227;-90
2023/05/31 04:04:03;;;;;;;6.90;3.23;;;;;;;;;;5056290;28;20623;-90
2023/05/31 04:06:31;;;;;;;6.93;3.10;;;;;;;;;;5037849;28;20260;-90
2023/05/31 04:08:58;;;;;;;6.77;3.40;;;;;;;;;;5053667;28;20234;-89
2023/05/31 04:11:25;;;;;;;5.50;3.17;;;;;;;;;;5054620;28;20225;-89
2023/05/31 04:13:53;;;;;;;6.23;3.27;;;;;;;;;;5045147;28;20793;-91
2023/05/31 04:16:20;;;;;;;10.00;3.63;;;;;;;;;;5037494;28;20227;-89
2023/05/31 04:18:47;;;;;;;9.83;3.40;;;;;;;;;;5050057;28;20210;-90
2023/05/31 04:21:15;;;;;;;5.60;3.50;;;;;;;;;;5046367;28;20229;-89
2023/05/31 04:23:43;;;;;;;6.03;3.73;;;;;;;;;;5042937;28;20214;-88
2023/05/31 04:26:16;;;;;;;6.33;3.30;;;;;;;;;;5041821;28;20759;-90
2023/05/31 04:28:43;;;;;;;9.93;3.67;;;;;;;;;;5041808;28;20306;-88
2023/05/31 04:31:10;;;;;;;7.90;3.43;;;;;;;;;;5049840;28;20248;-89
2023/05/31 04:33:38;;;;;;;6.53;3.00;;;;;;;;;;5051917;28;20683;-90
2023/05/31 04:36:08;;;;;;;5.20;3.40;;;;;;;;;;5050741;28;20312;-89
2023/05/31 04:38:36;;;;;;;9.57;3.73;;;;;;;;;;5038520;28;20210;-88
2023/05/31 04:41:04;;;;;;;10.47;3.43;;;;;;;;;;5054759;28;20229;-88
2023/05/31 04:43:31;;;;;;;9.40;3.60;;;;;;;;;;5047412;28;20209;-88
2023/05/31 04:46:00;;;;;;;7.43;3.53;;;;;;;;;;5047675;28;20223;-87
2023/05/31 04:48:27;;;;;;;9.43;3.60;;;;;;;;;;5044228;28;20226;-87
2023/05/31 04:50:55;;;;;;;5.23;3.40;;;;;;;;;;5047877;28;20313;-87
2023/05/31 04:53:22;;;;;;;5.40;3.63;;;;;;;;;;5041850;28;20241;-87
2023/05/31 04:55:51;;;;;;;6.07;3.97;;;;;;;;;;5038040;28;20226;-86
2023/05/31 04:58:19;;;;;;;7.00;4.20;;;;;;;;;;5045359;28;20222;-87
2023/05/31 05:00:46;;;;;;;7.77;3.93;;;;;;;;;;5044942;28;20237;-87
2023/05/31 05:03:13;;;;;;;8.67;4.03;;;;;;;;;;5041764;28;20245;-87
2023/05/31 05:05:40;;;;;;;4.30;3.67;;;;;;;;;;5040493;28;20646;-87
2023/05/31 05:08:08;;;;;;;6.90;3.90;;;;;;;;;;5033359;28;20754;-87
2023/05/31 05:10:35;;;;;;;8.50;4.60;;;;;;;;;;5049237;28;20238;-89
2023/05/31 05:13:03;;;;;;;9.07;4.40;;;;;;;;;;5048193;28;20205;-88
2023/05/31 05:15:30;;;;;;;8.87;4.10;;;;;;;;;;5044809;28;20234;-87
2023/05/31 05:17:57;;;;;;;9.23;4.67;;;;;;;;;;5049803;28;20225;-90
2023/05/31 05:20:24;;;;;;;7.67;4.03;;;;;;;;;;5052964;28;20229;-90
2023/05/31 05:22:52;;;;;;;8.97;3.80;;;;;;;;;;5055100;28;20206;-89
2023/05/31 05:25:20;;;;;;;8.27;4.23;;;;;;;;;;5035688;28;20257;-88
2023/05/31 05:27:47;;;;;;;7.87;4.30;;;;;;;;;;5039607;28;20234;-87
2023/05/31 05:30:16;;;;;;;7.23;3.60;;;;;;;;;;5031817;28;20284;-87
2023/05/31 05:32:43;;;;;;;8.73;3.73;;;;;;;;;;5043906;28;20285;-87
2023/05/31 05:35:10;;;;;;;8.33;3.50;;;;;;;;;;5043323;28;20232;-85
2023/05/31 05:37:38;;;;;;;7.73;3.10;;;;;;;;;;5040960;28;20222;-86
2023/05/31 05:40:07;;;;;;;7.33;3.20;;;;;;;;;;5033083;28;20237;-87
2023/05/31 05:42:36;;;;;;;5.43;3.30;;;;;;;;;;5043024;28;20237;-87
2023/05/31 05:45:04;;;;;;;7.67;3.20;;;;;;;;;;5037660;28;20230;-87
2023/05/31 05:47:32;;;;;;;8.23;4.20;;;;;;;;;;5051085;28;20233;-87
2023/05/31 05:49:59;;;;;;;5.13;2.73;;;;;;;;;;5045394;28;20716;-87
2023/05/31 05:52:26;;;;;;;6.73;3.03;;;;;;;;;;5031887;28;20233;-86
2023/05/31 05:54:53;;;;;;;6.97;2.50;;;;;;;;;;5031963;28;20317;-88
2023/05/31 05:57:21;;;;;;;4.47;2.50;;;;;;;;;;5033088;28;20215;-88
2023/05/31 05:59:49;;;;;;;7.77;3.20;;;;;;;;;;5052225;28;20229;-83
2023/05/31 06:02:16;;;;;;;7.77;2.70;;;;;;;;;;5035461;28;20212;-87
2023/05/31 06:04:44;;;;;;;5.57;2.90;;;;;;;;;;5030396;28;20230;-87
2023/05/31 06:07:11;;;;;;;6.47;2.80;;;;;;;;;;5034659;28;20318;-90
2023/05/31 06:09:38;;;;;;;6.30;2.53;;;;;;;;;;5050883;28;20238;-90
2023/05/31 06:12:06;;;;;;;5.53;2.50;;;;;;;;;;5053752;28;20198;-90
2023/05/31 06:14:33;;;;;;;5.43;2.47;;;;;;;;;;5056005;28;20210;-89
2023/05/31 06:17:00;;;;;;;3.87;2.73;;;;;;;;;;5041989;28;20293;-88
2023/05/31 06:19:28;;;;;;;4.77;2.40;;;;;;;;;;5043639;28;20207;-88
2023/05/31 06:21:57;;;;;;;5.03;2.67;;;;;;;;;;5058183;28;20225;-90
2023/05/31 06:24:24;;;;;;;2.97;2.10;;;;;;;;;;5041924;28;20234;-89
2023/05/31 06:26:51;;;;;;;4.33;2.67;;;;;;;;;;5047272;28;20223;-90
2023/05/31 06:29:18;;;;;;;4.57;2.50;;;;;;;;;;5037899;28;20215;-88
2023/05/31 06:31:45;;;;;;;5.27;2.00;;;;;;;;;;5041966;28;20198;-87
2023/05/31 06:34:13;;;;;;;4.83;2.43;;;;;;;;;;5046801;28;20209;-86
2023/05/31 06:36:40;;;;;;;4.43;2.50;;;;;;;;;;5044838;28;20234;-87
2023/05/31 06:39:09;;;;;;;4.90;2.40;;;;;;;;;;5055174;28;20202;-89
2023/05/31 06:41:37;;;;;;;6.07;2.45;;;;;;;;;;5046432;28;20725;-90
2023/05/31 06:44:04;;;;;;;3.67;2.10;;;;;;;;;;5045010;28;20197;-87
2023/05/31 06:46:31;;;;;;;5.25;2.17;;;;;;;;;;5056717;28;20660;-90
2023/05/31 06:48:58;;;;;;;4.45;2.35;;;;;;;;;;5043066;28;20218;-89
2023/05/31 06:51:25;;;;;;;5.45;2.55;;;;;;;;;;5048779;28;20233;-90
2023/05/31 06:53:52;;;;;;;3.88;2.33;;;;;;;;;;5058302;28;20206;-91
2023/05/31 06:56:21;;;;;;;5.40;2.22;;;;;;;;;;5059792;28;20222;-89
2023/05/31 06:58:48;;;;;;;5.63;2.10;;;;;;;;;;5052391;28;20207;-89
2023/05/31 07:01:15;;;;;;;5.80;2.67;;;;;;;;;;5047588;28;20252;-85
2023/05/31 07:03:42;;;;;;;5.03;2.55;;;;;;;;;;5036735;28;20237;-88
2023/05/31 07:06:09;;;;;;;3.80;2.45;;;;;;;;;;5045332;28;20225;-90
2023/05/31 07:08:36;;;;;;;3.90;1.98;;;;;;;;;;5054336;28;20230;-91
2023/05/31 07:11:03;;;;;;;4.45;2.20;;;;;;;;;;5044946;28;20246;-89
2023/05/31 07:13:32;;;;;;;3.55;2.17;;;;;;;;;;5045278;28;20218;-90
2023/05/31 07:15:59;;;;;;;4.00;2.25;;;;;;;;;;5056930;28;20291;-89
2023/05/31 07:18:26;;;;;;;5.30;2.25;;;;;;;;;;5048903;28;20879;-90
2023/05/31 07:20:56;;;;;;;4.68;1.92;;;;;;;;;;5043722;28;21006;-90
2023/05/31 07:23:24;;;;;;;5.38;2.28;;;;;;;;;;5045375;28;20224;-89
2023/05/31 07:25:51;;;;;;;3.88;2.00;;;;;;;;;;5045091;28;20765;-87
2023/05/31 07:28:18;;;;;;;6.25;2.03;;;;;;;;;;5053391;28;20232;-89
2023/05/31 07:30:46;;;;;;;4.55;2.17;;;;;;;;;;5054428;28;20233;-88
2023/05/31 07:33:13;;;;;;;4.03;1.80;;;;;;;;;;5048193;28;20195;-88
2023/05/31 07:35:41;;;;;;;3.80;1.90;;;;;;;;;;5048072;28;20233;-89
2023/05/31 07:38:08;;;;;;;2.95;2.03;;;;;;;;;;5059057;28;20218;-88
2023/05/31 07:40:35;;;;;;;3.83;1.70;;;;;;;;;;5058549;28;20236;-88
2023/05/31 07:43:02;;;;;;;4.00;1.75;;;;;;;;;;5049702;28;20207;-86
2023/05/31 07:45:30;;;;;;;8.10;2.53;;;;;;;;;;5036589;28;20235;-90
2023/05/31 07:47:58;;;;;;;4.03;1.80;;;;;;;;;;5042770;28;20226;-87
2023/05/31 07:50:26;;;;;;;2.33;1.85;;;;;;;;;;5037425;28;20309;-90
2023/05/31 07:52:53;;;;;;;4.15;1.90;;;;;;;;;;5046506;28;20213;-88
2023/05/31 07:55:20;;;;;;;4.20;1.80;;;;;;;;;;5038843;28;20231;-88
2023/05/31 07:57:47;;;;;;;3.03;1.67;;;;;;;;;;5057514;28;20244;-89
2023/05/31 08:00:16;;;;;;;4.53;2.40;;;;;;;;;;5055634;28;20225;-92
2023/05/31 08:02:43;;;;;;;4.65;1.95;;;;;;;;;;5050584;28;20191;-85
2023/05/31 08:05:12;;;;;;;5.38;2.67;;;;;;;;;;5042210;28;20587;-89
2023/05/31 08:07:39;;;;;;;2.40;1.85;;;;;;;;;;5052782;28;20233;-89
2023/05/31 08:10:06;;;;;;;2.28;1.60;;;;;;;;;;5053042;28;20731;-90
2023/05/31 08:12:33;;;;;;;2.70;1.67;;;;;;;;;;5048478;28;20578;-89
2023/05/31 08:15:00;;;;;;;3.47;1.73;;;;;;;;;;5047848;28;20229;-84
2023/05/31 08:17:27;;;;;;;3.75;1.58;;;;;;;;;;5050998;28;20229;-85
2023/05/31 08:19:55;;;;;;;6.45;1.77;;;;;;;;;;5039267;28;20239;-85
2023/05/31 08:22:23;;;;;;;1.95;1.60;;;;;;;;;;5040084;28;20198;-85
2023/05/31 08:24:50;;;;;;;4.93;1.75;;;;;;;;;;5039222;28;20280;-82
2023/05/31 08:27:18;;;;;;;3.83;1.80;;;;;;;;;;5039727;28;20234;-84
2023/05/31 08:29:45;;;;;;;3.45;1.83;;;;;;;;;;5049843;28;20233;-85
2023/05/31 08:32:12;;;;;;;2.88;1.83;;;;;;;;;;5038085;28;20195;-85
2023/05/31 08:34:39;;;;;;;5.63;2.00;;;;;;;;;;5041711;28;20232;-85
2023/05/31 08:37:06;;;;;;;1.85;1.48;;;;;;;;;;5043803;28;20213;-86
2023/05/31 08:39:36;;;;;;;5.50;1.95;;;;;;;;;;5034505;28;20206;-86
2023/05/31 08:42:05;;;;;;;3.53;1.60;;;;;;;;;;5042642;28;20292;-85
2023/05/31 08:44:33;;;;;;;3.80;1.60;;;;;;;;;;5034176;28;20661;-88
2023/05/31 08:47:05;;;;;;;2.40;1.75;;;;;;;;;;5036301;28;20719;-85
2023/05/31 08:49:34;;;;;;;1.83;1.60;;;;;;;;;;5034961;28;20222;-87
2023/05/31 08:52:01;;;;;;;5.18;2.05;;;;;;;;;;5048719;28;20194;-88
2023/05/31 08:54:28;;;;;;;4.93;1.90;;;;;;;;;;5042733;28;20202;-89
2023/05/31 08:56:57;;;;;;;2.28;1.77;;;;;;;;;;5056835;28;20230;-85
2023/05/31 08:59:24;;;;;;;3.50;1.60;;;;;;;;;;5046428;28;20194;-89
2023/05/31 09:01:52;;;;;;;4.32;1.80;;;;;;;;;;5046812;28;20202;-88
2023/05/31 09:04:19;;;;;;;4.32;1.80;;;;;;;;;;5047095;28;20761;-91
2023/05/31 09:06:47;;;;;;;4.85;1.67;;;;;;;;;;5045402;28;20237;-92
2023/05/31 09:09:15;;;;;;;3.40;1.75;;;;;;;;;;5051641;28;20214;-89
2023/05/31 09:11:42;;;;;;;4.40;1.75;;;;;;;;;;5050451;28;20226;-89
2023/05/31 09:14:10;;;;;;;5.63;2.30;;;;;;;;;;5048727;28;20198;-90
2023/05/31 09:16:37;;;;;;;5.70;1.88;;;;;;;;;;5037153;28;20329;-90
2023/05/31 09:19:06;;;;;;;2.75;1.90;;;;;;;;;;5037440;28;20253;-90
2023/05/31 09:21:39;;;;;;;4.47;1.70;;;;;;;;;;5036317;28;20230;-90
2023/05/31 09:24:06;;;;;;;3.15;1.73;;;;;;;;;;5052716;28;20218;-90
2023/05/31 09:26:34;;;;;;;2.20;1.60;;;;;;;;;;5036181;28;20238;-88
2023/05/31 09:29:01;;;;;;;3.00;1.65;;;;;;;;;;5037203;28;20253;-89
2023/05/31 09:31:29;;;;;;;9.50;1.58;;;;;;;;;;5051356;28;20233;-89
2023/05/31 09:33:56;;;;;;;2.05;1.77;;;;;;;;;;5036344;28;20206;-90
2023/05/31 09:36:27;;;;;;;3.20;1.60;;;;;;;;;;5036306;28;20233;-91
2023/05/31 09:39:02;;;;;;;3.20;1.60;;;;;;;;;;5052596;28;20202;-87
2023/05/31 09:41:30;;;;;;;1.92;1.58;;;;;;;;;;5043980;28;20233;-89
2023/05/31 09:43:57;;;;;;;6.40;1.73;;;;;;;;;;5038021;28;20289;-89
2023/05/31 09:46:24;;;;;;;1.90;1.58;;;;;;;;;;5053337;28;20431;-87
2023/05/31 09:48:59;;;;;;;5.32;1.40;;;;;;;;;;5044503;28;20782;-88
2023/05/31 09:51:27;;;;;;;2.13;1.63;;;;;;;;;;5032257;28;20229;-86
2023/05/31 09:53:55;;;;;;;3.40;1.67;;;;;;;;;;5039401;28;20209;-92
2023/05/31 09:56:23;;;;;;;3.25;1.42;;;;;;;;;;5050576;28;20261;-88
2023/05/31 09:58:51;;;;;;;3.88;1.90;;;;;;;;;;5049357;28;20203;-90
2023/05/31 10:01:18;;;;;;;3.05;1.85;;;;;;;;;;5052559;28;20607;-90
2023/05/31 10:03:46;;;;;;;2.85;1.60;;;;;;;;;;5059252;28;20209;-90
2023/05/31 10:06:17;;;;;;;3.58;1.27;;;;;;;;;;5054127;28;20254;-88
2023/05/31 10:08:44;;;;;;;2.53;1.48;;;;;;;;;;5040560;28;20666;-91
2023/05/31 10:11:13;;;;;;;2.47;1.50;;;;;;;;;;5058083;28;20230;-92
2023/05/31 10:13:42;;;;;;;1.85;1.58;;;;;;;;;;5050557;28;20203;-91
2023/05/31 10:16:10;;;;;;;1.85;1.55;;;;;;;;;;5059809;28;20234;-92
2023/05/31 10:18:39;;;;;;;3.92;1.42;;;;;;;;;;5054017;28;20226;-92
2023/05/31 10:21:09;;;;;;;2.75;1.42;;;;;;;;;;5053152;28;20603;-90
2023/05/31 10:23:42;;;;;;;2.78;1.67;;;;;;;;;;5051751;28;20694;-91
2023/05/31 10:26:13;;;;;;;5.00;2.20;;;;;;;;;;5053451;28;20305;-92
2023/05/31 10:28:42;;;;;;;1.52;1.33;;;;;;;;;;5056488;28;20705;-90
2023/05/31 10:31:11;;;;;;;2.63;1.40;;;;;;;;;;5058131;28;20222;-92
2023/05/31 10:33:38;;;;;;;4.20;1.58;;;;;;;;;;5059534;28;20221;-90
2023/05/31 10:36:05;;;;;;;1.67;1.40;;;;;;;;;;5039002;28;20227;-91
2023/05/31 10:38:38;;;;;;;2.15;1.50;;;;;;;;;;5049793;28;20226;-92
2023/05/31 10:41:08;;;;;;;3.20;1.85;;;;;;;;;;5043701;28;20814;-90
2023/05/31 10:43:38;;;;;;;4.00;1.55;;;;;;;;;;5060096;28;20421;-87
2023/05/31 10:46:07;;;;;;;2.83;1.42;;;;;;;;;;5055389;28;20230;-90
2023/05/31 10:48:41;;;;;;;6.13;1.70;;;;;;;;;;5039636;28;20280;-86
2023/05/31 10:51:09;;;;;;;5.53;1.58;;;;;;;;;;5037146;28;20279;-91
2023/05/31 10:53:37;;;;;;;2.67;1.50;;;;;;;;;;5044325;28;20233;-90
2023/05/31 10:56:04;;;;;;;1.50;1.40;;;;;;;;;;5048076;28;20237;-89
2023/05/31 10:58:37;;;;;;;1.73;1.60;;;;;;;;;;5041155;28;20227;-90
2023/05/31 11:01:05;;;;;;;2.22;1.30;;;;;;;;;;5040251;28;20222;-90
2023/05/31 11:03:34;;;;;;;2.03;1.48;;;;;;;;;;5043224;28;20222;-88
2023/05/31 11:06:03;;;;;;;4.68;1.40;;;;;;;;;;5041708;28;20226;-88
2023/05/31 11:08:30;;;;;;;1.88;1.42;;;;;;;;;;5057560;28;20685;-91
2023/05/31 11:11:12;;;;;;;2.20;1.48;;;;;;;;;;5056088;28;20222;-90
2023/05/31 11:14:03;;;;;;;1.83;1.67;;;;;;;;;;5039717;28;20221;-91
2023/05/31 11:16:33;;;;;;;1.75;1.60;;;;;;;;;;5041956;28;20313;-88
2023/05/31 11:19:05;;;;;;;3.88;1.80;;;;;;;;;;5046181;28;20298;-89
2023/05/31 11:21:48;;;;;;;5.55;1.95;;;;;;;;;;5037980;28;20238;-90
2023/05/31 11:24:26;;;;;;;4.57;1.80;;;;;;;;;;5039143;28;20241;-89
2023/05/31 11:26:53;;;;;;;3.28;1.42;;;;;;;;;;5038566;28;20241;-88
2023/05/31 11:29:20;;;;;;;2.80;1.70;;;;;;;;;;5042567;28;20285;-89
2023/05/31 11:31:59;;;;;;;2.58;1.38;;;;;;;;;;5054765;28;20241;-88
2023/05/31 11:34:27;;;;;;;3.25;1.85;;;;;;;;;;5050416;28;20628;-90
2023/05/31 11:36:55;;;;;;;6.03;1.70;;;;;;;;;;5053074;28;20742;-87
2023/05/31 11:39:22;;;;;;;1.98;1.45;;;;;;;;;;5036940;28;20199;-92
2023/05/31 11:41:49;;;;;;;2.65;1.40;;;;;;;;;;5054165;28;20221;-90
2023/05/31 11:44:19;;;;;;;1.90;1.50;;;;;;;;;;5037021;28;20214;-89
2023/05/31 11:46:47;;;;;;;4.68;1.50;;;;;;;;;;5055760;28;20287;-90
2023/05/31 11:49:16;;;;;;;2.80;1.73;;;;;;;;;;5051355;28;20223;-88
2023/05/31 11:51:44;;;;;;;1.40;1.27;;;;;;;;;;5046442;28;20226;-88
2023/05/31 11:54:14;;;;;;;5.25;1.50;;;;;;;;;;5034392;28;20579;-90
2023/05/31 11:56:41;;;;;;;3.45;2.13;;;;;;;;;;5035224;28;20238;-92
2023/05/31 11:59:10;;;;;;;1.40;1.30;;;;;;;;;;5056591;28;20198;-92
2023/05/31 12:01:38;;;;;;;2.30;1.35;;;;;;;;;;5055547;28;20321;-90
2023/05/31 12:04:05;;;;;;;1.58;1.45;;;;;;;;;;5055567;28;20201;-91
2023/05/31 12:06:35;;;;;;;5.30;2.05;;;;;;;;;;5055469;28;20229;-90
2023/05/31 12:09:02;;;;;;;2.67;1.67;;;;;;;;;;5047042;28;20214;-90
2023/05/31 12:11:30;;;;;;;1.42;1.33;;;;;;;;;;5038669;28;20373;-91
2023/05/31 12:13:57;;;;;;;1.92;1.65;;;;;;;;;;5051523;28;20587;-91
2023/05/31 12:16:24;;;;;;;1.92;1.48;;;;;;;;;;5047017;28;20727;-86
2023/05/31 12:18:52;;;;;;;2.97;1.70;;;;;;;;;;5046832;28;20206;-88
2023/05/31 12:21:20;;;;;;;4.07;1.70;;;;;;;;;;5052009;28;20227;-90
2023/05/31 12:23:55;;;;;;;1.58;1.45;;;;;;;;;;5047316;28;20676;-89
2023/05/31 12:26:23;;;;;;;2.08;1.48;;;;;;;;;;5037298;28;20234;-91
2023/05/31 12:28:51;;;;;;;1.70;1.33;;;;;;;;;;5036343;28;20742;-89
2023/05/31 12:31:21;;;;;;;1.98;1.40;;;;;;;;;;5042995;28;20230;-88
2023/05/31 12:33:52;;;;;;;2.30;1.48;;;;;;;;;;5057384;28;20237;-87
2023/05/31 12:36:19;;;;;;;2.42;1.65;;;;;;;;;;5056504;28;20241;-88
2023/05/31 12:38:46;;;;;;;2.25;1.60;;;;;;;;;;5056616;28;20216;-89
2023/05/31 12:41:18;;;;;;;2.67;1.60;;;;;;;;;;5055344;28;20233;-91
2023/05/31 12:43:45;;;;;;;2.85;1.60;;;;;;;;;;5057412;28;20218;-91
2023/05/31 12:46:17;;;;;;;2.75;1.35;;;;;;;;;;5040559;28;20236;-91
2023/05/31 12:48:47;;;;;;;1.60;1.50;;;;;;;;;;5041124;28;20213;-89
2023/05/31 12:51:14;;;;;;;2.15;1.55;;;;;;;;;;5053104;28;20586;-89
2023/05/31 12:53:41;;;;;;;2.17;1.40;;;;;;;;;;5034474;28;20342;-86
2023/05/31 12:56:08;;;;;;;4.97;1.58;;;;;;;;;;5053669;28;20312;-88
2023/05/31 12:58:36;;;;;;;1.77;1.67;;;;;;;;;;5050066;28;20227;-89
2023/05/31 13:01:04;;;;;;;2.70;1.40;;;;;;;;;;5057191;28;20222;-88
2023/05/31 13:03:31;;;;;;;2.35;1.60;;;;;;;;;;5041763;28;20226;-89
2023/05/31 13:05:58;;;;;;;1.80;1.70;;;;;;;;;;5048085;28;20238;-88
2023/05/31 13:08:25;;;;;;;1.58;1.30;;;;;;;;;;5049651;28;20226;-90
2023/05/31 13:10:53;;;;;;;2.92;1.60;;;;;;;;;;5043764;28;20237;-86
2023/05/31 13:13:20;;;;;;;4.32;1.73;;;;;;;;;;5047829;28;20593;-89
2023/05/31 13:15:48;;;;;;;2.15;1.40;;;;;;;;;;5053857;28;20738;-90
2023/05/31 13:18:15;;;;;;;2.00;1.67;;;;;;;;;;5050251;28;20245;-87
2023/05/31 13:20:42;;;;;;;2.72;1.40;;;;;;;;;;5043354;28;20647;-87
2023/05/31 13:23:10;;;;;;;1.50;1.40;;;;;;;;;;5051051;28;20206;-91
2023/05/31 13:25:39;;;;;;;5.05;1.52;;;;;;;;;;5045824;28;20234;-90
2023/05/31 13:28:06;;;;;;;2.72;1.40;;;;;;;;;;5042656;28;20720;-89
2023/05/31 13:30:33;;;;;;;2.25;1.52;;;;;;;;;;5045539;28;20230;-88
2023/05/31 13:33:02;;;;;;;1.63;1.05;;;;;;;;;;5038486;28;20280;-89
2023/05/31 13:35:30;;;;;;;1.52;1.27;;;;;;;;;;5046269;28;20365;-89
2023/05/31 13:37:57;;;;;;;1.85;1.33;;;;;;;;;;5048452;28;20715;-89
2023/05/31 13:40:24;;;;;;;1.65;1.40;;;;;;;;;;5044145;28;20230;-87
2023/05/31 13:42:51;;;;;;;1.67;1.30;;;;;;;;;;5053571;28;20214;-87
2023/05/31 13:45:18;;;;;;;1.60;1.10;;;;;;;;;;5044269;28;20237;-84
2023/05/31 13:47:45;;;;;;;1.75;1.50;;;;;;;;;;5056501;28;20230;-87
2023/05/31 13:50:13;;;;;;;1.40;1.10;;;;;;;;;;5053439;28;20245;-90
2023/05/31 13:52:40;;;;;;;1.48;1.38;;;;;;;;;;5045720;28;20207;-89
2023/05/31 13:55:08;;;;;;;1.10;1.00;;;;;;;;;;5056637;28;20240;-89
2023/05/31 13:57:35;;;;;;;1.67;1.40;;;;;;;;;;5048589;28;20221;-90
2023/05/31 14:00:04;;;;;;;1.77;1.55;;;;;;;;;;5038111;28;20230;-87
2023/05/31 14:02:32;;;;;;;2.08;1.40;;;;;;;;;;5044310;28;20214;-89
2023/05/31 14:05:02;;;;;;;2.03;1.50;;;;;;;;;;5045075;28;20238;-87
2023/05/31 14:07:31;;;;;;;2.28;1.50;;;;;;;;;;5048173;28;20271;-91
2023/05/31 14:09:58;;;;;;;3.92;1.80;;;;;;;;;;5046888;28;20669;-87
2023/05/31 14:12:25;;;;;;;1.70;1.38;;;;;;;;;;5046939;28;20199;-87
2023/05/31 14:14:52;;;;;;;1.92;1.50;;;;;;;;;;5051023;28;20233;-88
2023/05/31 14:17:19;;;;;;;1.98;1.50;;;;;;;;;;5042715;28;20600;-88
2023/05/31 14:19:46;;;;;;;3.47;1.38;;;;;;;;;;5050088;28;20225;-89
2023/05/31 14:22:13;;;;;;;2.15;1.70;;;;;;;;;;5040062;28;20206;-88
2023/05/31 14:24:41;;;;;;;4.00;1.45;;;;;;;;;;5045095;28;20238;-88
2023/05/31 14:27:08;;;;;;;2.90;1.60;;;;;;;;;;5053325;28;20225;-84
2023/05/31 14:29:35;;;;;;;3.03;1.55;;;;;;;;;;5036309;28;20214;-89
2023/05/31 14:32:02;;;;;;;2.80;1.60;;;;;;;;;;5054079;28;20636;-90
2023/05/31 14:34:29;;;;;;;5.43;1.48;;;;;;;;;;5046621;28;20203;-89
2023/05/31 14:36:56;;;;;;;1.45;1.35;;;;;;;;;;5046534;28;20241;-88
2023/05/31 14:39:23;;;;;;;1.75;1.30;;;;;;;;;;5041854;28;20198;-88
2023/05/31 14:41:52;;;;;;;1.95;1.40;;;;;;;;;;5049650;28;20211;-89
2023/05/31 14:44:19;;;;;;;2.50;1.52;;;;;;;;;;5055742;28;20202;-89
2023/05/31 14:46:46;;;;;;;2.90;1.38;;;;;;;;;;5057425;28;20268;-88
2023/05/31 14:49:14;;;;;;;3.45;1.35;;;;;;;;;;5053401;28;20212;-88
2023/05/31 14:51:41;;;;;;;4.15;1.15;;;;;;;;;;5052379;28;20226;-88